createdAt,value
2022-08-03T00:00:31.999Z,1.70
2022-08-03T00:02:58.898Z,1.35
2022-08-03T00:05:25.509Z,1.80
2022-08-03T00:07:52.197Z,1.33
2022-08-03T00:10:19.605Z,1.27
2022-08-03T00:12:46.183Z,1.50
2022-08-03T00:15:15.190Z,1.58
2022-08-03T00:17:52.034Z,1.45
2022-08-03T00:20:19.805Z,1.70
2022-08-03T00:22:46.555Z,1.20
2022-08-03T00:25:13.179Z,1.55
2022-08-03T00:27:39.847Z,1.60
2022-08-03T00:30:07.030Z,1.80
2022-08-03T00:32:33.650Z,1.52
2022-08-03T00:35:00.262Z,1.45
2022-08-03T00:37:41.507Z,1.45
2022-08-03T00:40:10.270Z,1.85
2022-08-03T00:42:46.106Z,1.27
2022-08-03T00:45:12.687Z,1.48
2022-08-03T00:47:39.275Z,1.52
2022-08-03T00:50:06.245Z,1.90
2022-08-03T00:52:33.249Z,1.70
2022-08-03T00:55:00.711Z,1.80
2022-08-03T00:57:27.994Z,1.45
2022-08-03T00:59:54.597Z,1.73
2022-08-03T01:02:23.449Z,1.52
2022-08-03T01:04:53.069Z,1.27
2022-08-03T01:07:38.545Z,1.58
2022-08-03T01:10:14.676Z,1.80
2022-08-03T01:13:59.210Z,1.25
2022-08-03T01:16:09.747Z,1.42
2022-08-03T01:18:39.010Z,1.67
2022-08-03T01:21:11.720Z,1.27
2022-08-03T01:23:49.194Z,1.30
2022-08-03T01:26:27.913Z,1.65
2022-08-03T01:28:58.506Z,1.45
2022-08-03T01:32:59.695Z,1.35
2022-08-03T01:34:31.668Z,1.45
2022-08-03T01:37:01.940Z,1.20
2022-08-03T01:39:29.636Z,1.30
2022-08-03T01:42:00.473Z,1.35
2022-08-03T01:44:31.340Z,1.55
2022-08-03T01:47:04.646Z,1.25
2022-08-03T01:49:33.779Z,1.30
2022-08-03T01:52:04.947Z,1.30
2022-08-03T01:54:52.602Z,1.30
2022-08-03T01:57:19.918Z,1.70
2022-08-03T01:59:48.783Z,1.13
2022-08-03T02:02:34.172Z,1.20
2022-08-03T02:05:01.802Z,1.30
2022-08-03T02:07:31.701Z,1.35
2022-08-03T02:09:58.565Z,1.42
2022-08-03T02:12:28.363Z,1.33
2022-08-03T02:14:56.565Z,1.88
2022-08-03T02:17:38.974Z,1.40
2022-08-03T02:20:07.890Z,1.33
2022-08-03T02:22:35.073Z,1.33
2022-08-03T02:25:01.830Z,1.45
2022-08-03T02:27:29.549Z,1.60
2022-08-03T02:30:03.642Z,1.67
2022-08-03T02:32:32.649Z,1.30
2022-08-03T02:35:00.575Z,1.42
2022-08-03T02:37:28.967Z,1.20
2022-08-03T02:40:01.039Z,1.20
2022-08-03T02:42:28.555Z,1.33
2022-08-03T02:44:56.699Z,1.20
2022-08-03T02:47:23.756Z,1.70
2022-08-03T02:49:52.333Z,1.40
2022-08-03T02:52:23.652Z,1.70
2022-08-03T02:54:52.401Z,1.63
2022-08-03T02:57:20.100Z,1.60
2022-08-03T02:59:47.149Z,1.55
2022-08-03T03:02:16.107Z,1.38
2022-08-03T03:04:59.722Z,1.30
2022-08-03T03:07:31.356Z,1.77
2022-08-03T03:10:07.239Z,1.30
2022-08-03T03:12:35.477Z,1.42
2022-08-03T03:15:02.007Z,1.63
2022-08-03T03:17:29.210Z,1.35
2022-08-03T03:19:56.365Z,1.48
2022-08-03T03:22:23.658Z,1.40
2022-08-03T03:24:51.854Z,1.45
2022-08-03T03:27:18.690Z,1.00
2022-08-03T03:29:45.381Z,1.90
2022-08-03T03:32:12.068Z,1.10
2022-08-03T03:34:39.019Z,1.50
2022-08-03T03:37:05.927Z,1.58
2022-08-03T03:39:32.643Z,1.65
2022-08-03T03:42:00.277Z,1.60
2022-08-03T03:44:28.636Z,1.30
2022-08-03T03:46:56.282Z,1.30
2022-08-03T03:49:22.959Z,1.65
2022-08-03T03:51:52.883Z,1.85
2022-08-03T03:54:19.520Z,1.17
2022-08-03T03:56:48.331Z,1.33
2022-08-03T03:59:14.977Z,1.83
2022-08-03T04:01:42.013Z,1.63
2022-08-03T04:04:26.981Z,1.20
2022-08-03T04:07:12.503Z,1.08
2022-08-03T04:09:59.189Z,1.45
2022-08-03T04:12:36.289Z,1.33
2022-08-03T04:15:03.620Z,1.00
2022-08-03T04:17:30.812Z,1.48
2022-08-03T04:19:57.904Z,1.50
2022-08-03T04:22:26.864Z,1.33
2022-08-03T04:25:04.960Z,1.20
2022-08-03T04:27:34.833Z,1.35
2022-08-03T04:30:03.418Z,1.88
2022-08-03T04:32:30.722Z,1.70
2022-08-03T04:34:57.499Z,1.30
2022-08-03T04:37:38.359Z,1.25
2022-08-03T04:40:11.591Z,1.27
2022-08-03T04:42:39.558Z,1.63
2022-08-03T04:45:06.503Z,1.10
2022-08-03T04:47:33.806Z,1.35
2022-08-03T04:50:01.595Z,1.27
2022-08-03T04:52:28.216Z,1.30
2022-08-03T04:54:54.978Z,1.67
2022-08-03T04:57:22.159Z,1.15
2022-08-03T05:00:02.704Z,1.42
2022-08-03T05:02:31.132Z,1.45
2022-08-03T05:04:57.779Z,1.40
2022-08-03T05:07:24.873Z,1.63
2022-08-03T05:09:52.701Z,1.23
2022-08-03T05:12:25.290Z,1.33
2022-08-03T05:14:53.045Z,1.27
2022-08-03T05:17:19.667Z,1.70
2022-08-03T05:19:46.371Z,1.38
2022-08-03T05:22:12.887Z,1.33
2022-08-03T05:24:39.515Z,1.83
2022-08-03T05:27:06.241Z,1.50
2022-08-03T05:29:32.894Z,1.52
2022-08-03T05:31:59.740Z,1.42
2022-08-03T05:34:26.387Z,1.30
2022-08-03T05:36:53.259Z,1.33
2022-08-03T05:39:19.857Z,1.48
2022-08-03T05:41:46.395Z,1.80
2022-08-03T05:44:13.068Z,1.05
2022-08-03T05:46:39.648Z,1.35
2022-08-03T05:49:06.211Z,1.38
2022-08-03T05:51:33.506Z,1.50
2022-08-03T05:54:00.263Z,3.03
2022-08-03T05:56:26.889Z,2.13
2022-08-03T05:58:53.750Z,1.60
2022-08-03T06:01:22.562Z,2.15
2022-08-03T06:03:50.308Z,1.60
2022-08-03T06:06:19.136Z,1.50
2022-08-03T06:08:46.087Z,2.63
2022-08-03T06:11:13.350Z,1.30
2022-08-03T06:13:40.464Z,2.42
2022-08-03T06:16:07.136Z,1.88
2022-08-03T06:18:33.967Z,2.28
2022-08-03T06:21:13.991Z,2.50
2022-08-03T06:23:52.752Z,2.50
2022-08-03T06:26:20.548Z,1.73
2022-08-03T06:28:51.690Z,1.98
2022-08-03T06:31:22.807Z,1.83
2022-08-03T06:34:32.917Z,1.90
2022-08-03T06:36:36.101Z,1.90
2022-08-03T06:39:03.505Z,2.17
2022-08-03T06:41:30.061Z,2.42
2022-08-03T06:44:07.669Z,2.00
2022-08-03T06:46:34.504Z,2.35
2022-08-03T06:49:01.088Z,2.22
2022-08-03T06:52:03.463Z,2.17
2022-08-03T06:54:14.148Z,2.10
2022-08-03T06:56:40.696Z,2.17
2022-08-03T06:59:07.374Z,1.73
2022-08-03T07:01:34.255Z,2.20
2022-08-03T07:04:01.256Z,1.60
2022-08-03T07:06:27.840Z,2.90
2022-08-03T07:08:58.991Z,1.90
2022-08-03T07:11:26.135Z,2.72
2022-08-03T07:13:52.883Z,2.90
2022-08-03T07:16:19.391Z,1.52
2022-08-03T07:18:46.032Z,2.15
2022-08-03T07:21:12.894Z,1.77
2022-08-03T07:23:39.647Z,1.77
2022-08-03T07:26:06.433Z,1.83
2022-08-03T07:28:33.107Z,2.50
2022-08-03T07:31:01.693Z,1.88
2022-08-03T07:33:28.374Z,2.63
2022-08-03T07:35:54.953Z,2.08
2022-08-03T07:38:21.724Z,1.90
2022-08-03T07:40:48.388Z,1.98
2022-08-03T07:43:14.983Z,2.40
2022-08-03T07:45:41.625Z,1.60
2022-08-03T07:48:12.189Z,1.70
2022-08-03T07:50:39.316Z,1.83
2022-08-03T07:53:05.857Z,2.17
2022-08-03T07:55:34.831Z,2.40
2022-08-03T07:58:09.897Z,1.80
2022-08-03T08:00:36.820Z,1.52
2022-08-03T08:03:04.095Z,1.98
2022-08-03T08:05:33.527Z,1.58
2022-08-03T08:08:00.678Z,1.65
2022-08-03T08:10:27.882Z,2.15
2022-08-03T08:12:54.506Z,1.70
2022-08-03T08:15:21.326Z,2.28
2022-08-03T08:17:49.156Z,2.25
2022-08-03T08:20:22.456Z,2.20
2022-08-03T08:23:00.295Z,1.83
2022-08-03T08:25:28.460Z,1.48
2022-08-03T08:28:22.361Z,2.88
2022-08-03T08:30:42.562Z,2.25
2022-08-03T08:33:23.429Z,2.33
2022-08-03T08:35:51.504Z,2.00
2022-08-03T08:38:18.042Z,3.97
2022-08-03T08:40:44.989Z,2.85
2022-08-03T08:43:11.580Z,2.83
2022-08-03T08:45:38.505Z,2.47
2022-08-03T08:48:08.210Z,2.22
2022-08-03T08:50:37.233Z,2.95
2022-08-03T08:53:04.578Z,2.22
2022-08-03T08:55:58.566Z,2.33
2022-08-03T08:58:21.067Z,2.65
2022-08-03T09:00:48.575Z,2.13
2022-08-03T09:03:29.284Z,2.05
2022-08-03T09:05:58.816Z,2.50
2022-08-03T09:08:25.687Z,2.35
2022-08-03T09:10:52.333Z,2.45
2022-08-03T09:13:19.337Z,2.40
2022-08-03T09:16:00.822Z,2.80
2022-08-03T09:18:33.104Z,2.53
2022-08-03T09:21:35.510Z,1.83
2022-08-03T09:24:05.359Z,2.05
2022-08-03T09:26:36.594Z,2.00
2022-08-03T09:29:13.791Z,2.25
2022-08-03T09:31:45.489Z,1.90
2022-08-03T09:34:13.859Z,2.45
2022-08-03T09:36:45.871Z,2.63
2022-08-03T09:39:15.608Z,3.10
2022-08-03T09:41:43.644Z,2.08
2022-08-03T09:44:24.267Z,1.95
2022-08-03T09:46:58.543Z,1.50
2022-08-03T09:49:25.334Z,2.17
2022-08-03T09:52:32.257Z,2.25
2022-08-03T09:54:38.899Z,2.30
2022-08-03T09:57:05.465Z,2.72
2022-08-03T09:59:33.474Z,2.10
2022-08-03T10:02:00.644Z,2.03
2022-08-03T10:04:27.347Z,2.10
2022-08-03T10:07:03.297Z,2.28
2022-08-03T10:09:30.009Z,2.70
2022-08-03T10:11:56.983Z,2.30
2022-08-03T10:14:23.637Z,2.72
2022-08-03T10:16:50.280Z,2.25
2022-08-03T10:19:17.386Z,1.90
2022-08-03T10:21:47.889Z,2.63
2022-08-03T10:24:15.950Z,2.38
2022-08-03T10:26:49.813Z,1.98
2022-08-03T10:29:21.360Z,3.00
2022-08-03T10:31:57.375Z,1.73
2022-08-03T10:34:26.378Z,1.67
2022-08-03T10:36:54.305Z,2.45
2022-08-03T10:39:22.100Z,2.72
2022-08-03T10:41:49.601Z,1.85
2022-08-03T10:44:20.184Z,1.80
2022-08-03T10:46:48.576Z,2.05
2022-08-03T10:49:16.898Z,1.90
2022-08-03T10:52:00.951Z,2.72
2022-08-03T10:54:35.379Z,2.00
2022-08-03T10:57:20.668Z,2.10
2022-08-03T10:59:47.271Z,2.47
2022-08-03T11:02:14.569Z,1.67
2022-08-03T11:04:41.909Z,1.48
2022-08-03T11:07:24.602Z,2.20
2022-08-03T11:09:52.802Z,2.03
2022-08-03T11:12:30.924Z,2.33
2022-08-03T11:15:21.569Z,1.90
2022-08-03T11:18:07.648Z,1.98
2022-08-03T11:20:48.231Z,2.63
2022-08-03T11:23:15.823Z,1.98
2022-08-03T11:26:00.957Z,2.17
2022-08-03T11:28:31.521Z,2.38
2022-08-03T11:31:39.305Z,2.40
2022-08-03T11:34:05.798Z,2.30
2022-08-03T11:36:52.325Z,2.10
2022-08-03T11:39:19.108Z,3.05
2022-08-03T11:41:45.849Z,1.70
2022-08-03T11:44:32.423Z,2.33
2022-08-03T11:46:59.896Z,2.55
2022-08-03T11:49:26.567Z,2.35
2022-08-03T11:51:53.586Z,2.75
2022-08-03T11:54:20.213Z,2.00
2022-08-03T11:56:48.200Z,1.80
2022-08-03T11:59:20.194Z,2.28
2022-08-03T12:01:48.565Z,2.15
2022-08-03T12:04:16.360Z,2.65
2022-08-03T12:06:58.348Z,2.10
2022-08-03T12:09:24.946Z,2.50
2022-08-03T12:12:00.486Z,2.72
2022-08-03T12:14:50.547Z,2.28
2022-08-03T12:17:15.142Z,2.05
2022-08-03T12:19:42.486Z,2.53
2022-08-03T12:22:09.051Z,1.77
2022-08-03T12:24:42.631Z,1.98
2022-08-03T12:27:09.331Z,2.50
2022-08-03T12:29:36.099Z,2.33
2022-08-03T12:32:02.729Z,2.50
2022-08-03T12:34:48.438Z,2.28
2022-08-03T12:37:29.347Z,2.38
2022-08-03T12:40:02.090Z,2.00
2022-08-03T12:42:35.879Z,2.53
2022-08-03T12:45:20.827Z,2.22
2022-08-03T12:47:51.098Z,2.15
2022-08-03T12:50:28.073Z,2.47
2022-08-03T12:52:55.149Z,2.15
2022-08-03T12:55:22.281Z,1.95
2022-08-03T12:57:49.461Z,1.70
2022-08-03T13:00:29.200Z,2.85
2022-08-03T13:03:26.515Z,2.42
2022-08-03T13:05:46.691Z,2.95
2022-08-03T13:08:23.669Z,1.77
2022-08-03T13:10:50.584Z,1.80
2022-08-03T13:13:17.262Z,1.95
2022-08-03T13:15:48.030Z,1.75
2022-08-03T13:18:17.311Z,2.92
2022-08-03T13:20:43.995Z,1.83
2022-08-03T13:23:13.882Z,1.73
2022-08-03T13:25:55.390Z,2.08
2022-08-03T13:28:22.753Z,1.83
2022-08-03T13:30:49.422Z,1.52
2022-08-03T13:33:16.081Z,1.75
2022-08-03T13:35:42.773Z,1.80
2022-08-03T13:38:09.353Z,1.55
2022-08-03T13:40:41.695Z,1.48
2022-08-03T13:43:08.578Z,1.98
2022-08-03T13:45:35.278Z,1.83
2022-08-03T13:48:02.074Z,2.30
2022-08-03T13:50:28.743Z,2.15
2022-08-03T13:52:55.265Z,1.48
2022-08-03T13:55:22.068Z,1.63
2022-08-03T13:58:03.233Z,1.58
2022-08-03T14:00:33.570Z,1.60
2022-08-03T14:03:09.139Z,2.10
2022-08-03T14:05:40.944Z,1.48
2022-08-03T14:08:08.055Z,1.40
2022-08-03T14:10:35.675Z,2.55
2022-08-03T14:13:02.429Z,1.75
2022-08-03T14:15:29.024Z,1.77
2022-08-03T14:17:56.374Z,2.03
2022-08-03T14:20:36.587Z,1.80
2022-08-03T14:23:06.807Z,1.77
2022-08-03T14:25:43.210Z,1.52
2022-08-03T14:28:16.873Z,1.40
2022-08-03T14:30:43.408Z,1.85
2022-08-03T14:33:09.914Z,1.60
2022-08-03T14:35:38.572Z,1.30
2022-08-03T14:38:05.952Z,1.05
2022-08-03T14:40:32.580Z,1.55
2022-08-03T14:42:59.261Z,1.45
2022-08-03T14:45:25.844Z,1.50
2022-08-03T14:50:34.600Z,1.45
2022-08-03T14:50:44.176Z,1.60
2022-08-03T14:53:12.363Z,1.50
2022-08-03T14:55:49.720Z,1.38
2022-08-03T14:58:19.616Z,1.70
2022-08-03T15:00:48.256Z,1.55
2022-08-03T15:03:16.689Z,1.52
2022-08-03T15:05:44.167Z,1.52
2022-08-03T15:08:10.917Z,1.80
2022-08-03T15:10:43.872Z,1.83
2022-08-03T15:13:12.070Z,1.33
2022-08-03T15:15:40.790Z,1.60
2022-08-03T15:18:07.622Z,1.40
2022-08-03T15:20:43.943Z,1.20
2022-08-03T15:23:12.314Z,1.38
2022-08-03T15:26:04.211Z,1.60
2022-08-03T15:28:25.596Z,1.70
2022-08-03T15:30:52.370Z,1.20
2022-08-03T15:33:19.525Z,1.38
2022-08-03T15:35:47.553Z,1.25
2022-08-03T15:38:14.476Z,1.23
2022-08-03T15:40:41.111Z,1.70
2022-08-03T15:43:07.785Z,1.13
2022-08-03T15:45:36.586Z,1.60
2022-08-03T15:48:04.818Z,1.80
2022-08-03T15:50:31.544Z,1.52
2022-08-03T15:52:58.211Z,1.30
2022-08-03T15:55:24.811Z,1.40
2022-08-03T15:59:04.906Z,1.67
2022-08-03T16:00:38.076Z,1.38
2022-08-03T16:03:04.781Z,1.48
2022-08-03T16:05:31.682Z,1.20
2022-08-03T16:08:02.914Z,1.40
2022-08-03T16:10:30.887Z,1.45
2022-08-03T16:12:58.982Z,1.35
2022-08-03T16:15:25.785Z,1.38
2022-08-03T16:17:52.402Z,1.30
2022-08-03T16:20:31.483Z,1.23
2022-08-03T16:23:09.141Z,1.23
2022-08-03T16:25:37.944Z,1.60
2022-08-03T16:28:07.970Z,1.25
2022-08-03T16:30:39.871Z,1.33
2022-08-03T16:33:06.494Z,1.38
2022-08-03T16:35:33.084Z,1.30
2022-08-03T16:37:59.732Z,1.85
2022-08-03T16:40:26.552Z,1.75
2022-08-03T16:42:53.289Z,1.35
2022-08-03T16:45:19.925Z,1.30
2022-08-03T16:47:47.707Z,1.40
2022-08-03T16:50:27.983Z,1.42
2022-08-03T16:52:54.525Z,1.30
2022-08-03T16:55:48.417Z,1.13
2022-08-03T16:58:08.316Z,1.10
2022-08-03T17:00:41.694Z,1.42
2022-08-03T17:03:18.788Z,1.63
2022-08-03T17:05:48.228Z,1.98
2022-08-03T17:08:26.103Z,2.63
2022-08-03T17:10:54.403Z,3.25
2022-08-03T17:13:22.496Z,3.97
2022-08-03T17:16:01.573Z,4.60
2022-08-03T17:18:34.150Z,5.25
2022-08-03T17:21:05.968Z,5.73
2022-08-03T17:23:38.705Z,5.45
2022-08-03T17:26:20.212Z,6.53
2022-08-03T17:28:57.446Z,7.13
2022-08-03T17:31:32.015Z,6.35
2022-08-03T17:34:00.391Z,6.63
2022-08-03T17:36:41.884Z,6.82
2022-08-03T17:39:14.749Z,6.35
2022-08-03T17:41:49.907Z,6.82
2022-08-03T17:46:58.629Z,6.70
2022-08-03T17:49:26.293Z,6.55
2022-08-03T17:51:57.636Z,6.57
2022-08-03T17:54:27.021Z,7.03
2022-08-03T17:57:22.292Z,6.50
2022-08-03T18:00:23.949Z,7.18
2022-08-03T18:03:14.274Z,7.93
2022-08-03T18:06:11.219Z,8.25
2022-08-03T18:08:36.411Z,6.93
2022-08-03T18:11:09.640Z,7.65
2022-08-03T18:13:57.889Z,7.28
2022-08-03T18:16:28.015Z,7.13
2022-08-03T18:18:56.992Z,8.13
2022-08-03T18:21:28.096Z,6.15
2022-08-03T18:24:15.094Z,7.50
2022-08-03T18:26:42.833Z,7.00
2022-08-03T18:29:15.329Z,7.05
2022-08-03T18:32:03.529Z,6.57
2022-08-03T18:34:34.130Z,8.18
2022-08-03T18:37:07.395Z,7.63
2022-08-03T18:39:39.016Z,7.32
2022-08-03T18:42:19.657Z,6.65
2022-08-03T18:44:54.172Z,7.38
2022-08-03T18:47:28.572Z,7.78
2022-08-03T18:50:19.006Z,7.38
2022-08-03T18:53:15.717Z,6.45
2022-08-03T18:56:03.644Z,6.97
2022-08-03T18:58:30.342Z,6.72
2022-08-03T19:01:03.543Z,7.43
2022-08-03T19:03:41.521Z,6.53
2022-08-03T19:06:19.193Z,6.63
2022-08-03T19:08:49.081Z,7.00
2022-08-03T19:11:20.631Z,7.50
2022-08-03T19:14:02.201Z,6.38
2022-08-03T19:16:36.091Z,6.60
2022-08-03T19:19:14.508Z,5.70
2022-08-03T19:21:41.615Z,7.47
2022-08-03T19:24:10.337Z,7.50
2022-08-03T19:26:38.559Z,7.55
2022-08-03T19:29:06.796Z,6.82
2022-08-03T19:31:59.135Z,6.43
2022-08-03T19:34:27.773Z,6.50
2022-08-03T19:36:55.352Z,6.97
2022-08-03T19:39:24.205Z,6.32
2022-08-03T19:41:56.160Z,6.40
2022-08-03T19:44:29.375Z,5.22
2022-08-03T19:47:05.949Z,5.22
2022-08-03T19:50:04.748Z,5.00
2022-08-03T19:52:24.383Z,3.40
2022-08-03T19:55:00.436Z,3.42
2022-08-03T19:57:28.433Z,2.90
2022-08-03T19:59:56.002Z,2.80
2022-08-03T20:02:26.034Z,2.42
2022-08-03T20:04:57.766Z,2.50
2022-08-03T20:07:27.619Z,2.58
2022-08-03T20:09:56.697Z,2.33
2022-08-03T20:12:28.329Z,2.13
2022-08-03T20:14:57.286Z,2.42
2022-08-03T20:17:54.026Z,1.92
2022-08-03T20:20:10.997Z,2.13
2022-08-03T20:22:40.202Z,2.10
2022-08-03T20:25:07.696Z,2.42
2022-08-03T20:28:06.970Z,1.92
2022-08-03T20:30:33.493Z,1.92
2022-08-03T20:33:00.180Z,2.00
2022-08-03T20:35:27.049Z,1.70
2022-08-03T20:37:56.799Z,1.60
2022-08-03T20:40:27.360Z,1.70
2022-08-03T20:42:55.452Z,1.67
2022-08-03T20:46:01.138Z,2.67
2022-08-03T20:48:09.911Z,1.77
2022-08-03T20:50:38.049Z,2.50
2022-08-03T20:53:06.014Z,2.25
2022-08-03T20:55:47.454Z,2.03
2022-08-03T20:58:20.261Z,1.73
2022-08-03T21:00:51.510Z,2.05
2022-08-03T21:03:19.965Z,2.53
2022-08-03T21:08:38.169Z,2.05
2022-08-03T21:11:16.578Z,2.88
2022-08-03T21:13:12.580Z,2.75
2022-08-03T21:13:46.739Z,2.65
2022-08-03T21:16:15.304Z,1.83
2022-08-03T21:18:45.914Z,1.75
2022-08-03T21:21:14.558Z,2.10
2022-08-03T21:23:48.896Z,1.98
2022-08-03T21:26:17.255Z,2.20
2022-08-03T21:28:45.250Z,2.00
2022-08-03T21:31:12.211Z,2.53
2022-08-03T21:33:40.133Z,2.60
2022-08-03T21:36:08.276Z,2.30
2022-08-03T21:38:35.995Z,2.25
2022-08-03T21:41:03.208Z,2.15
2022-08-03T21:43:30.835Z,2.33
2022-08-03T21:46:02.072Z,2.10
2022-08-03T21:48:31.097Z,2.40
2022-08-03T21:50:57.764Z,2.30
2022-08-03T21:54:00.379Z,2.15
2022-08-03T21:56:14.382Z,2.25
2022-08-03T21:58:40.918Z,2.22
2022-08-03T22:01:08.817Z,2.50
2022-08-03T22:03:53.004Z,2.20
2022-08-03T22:08:48.049Z,2.47
2022-08-03T22:11:14.667Z,2.08
2022-08-03T22:13:41.619Z,2.20
2022-08-03T22:16:11.328Z,2.30
2022-08-03T22:18:38.842Z,2.15
2022-08-03T22:21:06.718Z,2.25
2022-08-03T22:23:36.542Z,2.60
2022-08-03T22:26:04.207Z,2.30
2022-08-03T22:28:31.060Z,2.50
2022-08-03T22:30:58.808Z,3.00
2022-08-03T22:33:26.678Z,2.20
2022-08-03T22:35:56.290Z,3.25
2022-08-03T22:38:25.373Z,2.67
2022-08-03T22:40:52.395Z,3.05
2022-08-03T22:43:22.928Z,3.38
2022-08-03T22:46:09.066Z,2.70
2022-08-03T22:48:41.312Z,2.83
2022-08-03T22:51:08.885Z,3.03
2022-08-03T22:53:35.963Z,3.00
2022-08-03T22:56:03.281Z,2.47
2022-08-03T22:58:29.913Z,3.03
2022-08-03T23:00:58.419Z,2.78
2022-08-03T23:04:00.020Z,2.50
2022-08-03T23:06:14.284Z,2.92
2022-08-03T23:08:45.021Z,2.72
2022-08-03T23:11:12.645Z,2.80
2022-08-03T23:13:39.783Z,3.10
2022-08-03T23:16:06.798Z,2.60
2022-08-03T23:18:37.217Z,2.75
2022-08-03T23:21:11.269Z,2.47
2022-08-03T23:23:44.005Z,2.60
2022-08-03T23:26:12.196Z,2.60
2022-08-03T23:28:39.786Z,2.63
2022-08-03T23:31:07.730Z,2.63
2022-08-03T23:33:36.818Z,2.10
2022-08-03T23:36:22.679Z,2.50
2022-08-03T23:38:53.434Z,2.65
2022-08-03T23:41:20.217Z,3.03
2022-08-03T23:43:51.896Z,2.55
2022-08-03T23:46:24.306Z,2.72
2022-08-03T23:48:51.219Z,2.67
2022-08-03T23:51:23.621Z,2.38
2022-08-03T23:53:52.005Z,2.58
2022-08-03T23:56:33.563Z,2.53
2022-08-03T23:59:04.432Z,2.42
